Time;durP1;ratioP1;P1;durP2;ratioP2;P2;SDS_P1;SDS_P2;PMS_P1;PMS_P2;Temp;Humidity;BMP_temperature;BMP_pressure;BME280_temperature;BME280_humidity;BME280_pressure;Samples;Min_cycle;Max_cycle;Signal;HPM_P1;HPM_P2
2022/05/29 00:01:18;;;;;;;6.72;1.10;;;9.90;99.90;;;;;;5036412;28;20041;-85
2022/05/29 00:03:45;;;;;;;0.10;0.10;;;9.80;99.90;;;;;;5036242;28;20103;-85
2022/05/29 00:06:12;;;;;;;0.38;0.32;;;9.80;99.90;;;;;;5018551;28;20460;-85
2022/05/29 00:08:41;;;;;;;0.00;0.00;;;9.70;99.90;;;;;;5035873;28;20076;-85
2022/05/29 00:11:10;;;;;;;0.00;0.00;;;9.60;99.90;;;;;;5036319;28;20045;-85
2022/05/29 00:13:36;;;;;;;0.20;0.20;;;9.50;99.90;;;;;;5036342;28;20044;-85
2022/05/29 00:16:02;;;;;;;0.10;0.10;;;9.40;99.90;;;;;;5033376;28;20045;-85
2022/05/29 00:18:28;;;;;;;0.10;0.10;;;9.30;99.90;;;;;;5052730;28;20088;-84
2022/05/29 00:20:56;;;;;;;0.10;0.10;;;9.20;99.90;;;;;;5035801;28;20128;-85
2022/05/29 00:23:24;;;;;;;0.00;0.00;;;9.10;99.90;;;;;;5019600;28;20041;-85
2022/05/29 00:25:52;;;;;;;0.10;0.10;;;9.10;99.90;;;;;;5035440;28;20037;-83
2022/05/29 00:28:18;;;;;;;0.00;0.00;;;8.90;99.90;;;;;;5034925;28;20044;-82
2022/05/29 00:30:45;;;;;;;0.10;0.10;;;9.20;99.90;;;;;;5019717;28;20041;-83
2022/05/29 00:33:12;;;;;;;0.10;0.10;;;8.80;99.90;;;;;;5019722;28;20090;-82
2022/05/29 00:35:39;;;;;;;0.10;0.10;;;9.10;99.90;;;;;;5019434;28;20044;-83
2022/05/29 00:38:05;;;;;;;0.13;0.13;;;9.00;99.90;;;;;;5019372;28;20088;-82
2022/05/29 00:41:05;;;;;;;0.10;0.10;;;8.90;99.90;;;;;;5019959;28;20436;-83
2022/05/29 00:43:31;;;;;;;0.20;0.20;;;8.40;99.90;;;;;;5035644;28;20040;-85
2022/05/29 00:46:00;;;;;;;0.00;0.00;;;8.40;99.90;;;;;;5019152;28;20110;-85
2022/05/29 00:48:27;;;;;;;0.80;0.80;;;8.50;99.90;;;;;;5019079;28;20709;-85
2022/05/29 00:50:56;;;;;;;0.28;0.22;;;8.50;99.90;;;;;;5019166;28;20102;-85
2022/05/29 00:53:22;;;;;;;2.90;0.45;;;8.50;99.90;;;;;;5019433;28;20360;-85
2022/05/29 00:55:59;;;;;;;0.10;0.10;;;8.60;99.90;;;;;;5019052;28;20495;-85
2022/05/29 00:58:25;;;;;;;0.10;0.10;;;8.70;99.90;;;;;;5035024;28;20029;-85
2022/05/29 01:00:53;;;;;;;0.17;0.17;;;8.80;99.90;;;;;;5035535;28;20399;-85
2022/05/29 01:03:23;;;;;;;0.10;0.10;;;8.90;99.90;;;;;;5019032;28;20051;-85
2022/05/29 01:05:49;;;;;;;0.10;0.10;;;9.00;99.90;;;;;;5035347;28;20053;-85
2022/05/29 01:08:20;;;;;;;0.20;0.20;;;9.10;99.90;;;;;;5018674;28;20163;-85
2022/05/29 01:10:54;;;;;;;0.10;0.10;;;9.20;99.90;;;;;;5018602;28;20148;-85
2022/05/29 01:13:54;;;;;;;0.22;0.22;;;9.20;99.90;;;;;;5035540;28;20048;-85
2022/05/29 01:16:45;;;;;;;0.20;0.20;;;9.20;99.90;;;;;;5027833;28;20056;-90
2022/05/29 01:19:32;;;;;;;0.10;0.10;;;9.30;99.90;;;;;;5039665;28;20057;-90
2022/05/29 01:22:22;;;;;;;1.02;0.38;;;9.40;99.90;;;;;;5034980;28;20147;-90
2022/05/29 01:25:32;;;;;;;0.10;0.10;;;9.40;99.90;;;;;;5030865;28;20124;-90
2022/05/29 01:28:25;;;;;;;0.00;0.00;;;9.50;99.90;;;;;;5034925;28;20060;-90
2022/05/29 01:31:03;;;;;;;0.00;0.00;;;9.50;99.90;;;;;;5021820;28;20052;-90
2022/05/29 01:33:54;;;;;;;0.25;0.15;;;9.50;99.90;;;;;;5019645;28;20033;-85
2022/05/29 01:36:34;;;;;;;0.10;0.10;;;9.60;99.90;;;;;;5019375;28;20048;-85
2022/05/29 01:39:11;;;;;;;0.10;0.10;;;9.60;99.90;;;;;;5016320;28;20048;-85
2022/05/29 01:41:44;;;;;;;0.10;0.10;;;9.60;99.90;;;;;;5038646;28;20040;-85
2022/05/29 01:44:18;;;;;;;0.10;0.10;;;9.60;99.90;;;;;;5038679;28;20045;-85
2022/05/29 01:46:49;;;;;;;0.10;0.10;;;9.70;99.90;;;;;;5037118;28;20064;-85
2022/05/29 01:49:35;;;;;;;0.00;0.00;;;9.60;99.90;;;;;;5022879;28;20037;-82
2022/05/29 01:52:06;;;;;;;0.10;0.10;;;9.60;99.90;;;;;;5022166;28;20041;-82
2022/05/29 01:54:38;;;;;;;0.00;0.00;;;9.70;99.90;;;;;;5022775;28;20033;-82
2022/05/29 01:57:12;;;;;;;0.00;0.00;;;9.70;99.90;;;;;;5021854;28;20036;-82
2022/05/29 02:00:25;;;;;;;0.13;0.13;;;9.70;99.90;;;;;;5026536;28;20130;-82
2022/05/29 02:03:00;;;;;;;0.17;0.17;;;9.80;99.90;;;;;;4923582;29;20091;-82
2022/05/29 02:05:51;;;;;;;0.10;0.10;;;9.70;99.90;;;;;;4936667;29;20056;-84
2022/05/29 02:08:24;;;;;;;0.10;0.10;;;9.80;99.90;;;;;;4983403;28;20035;-84
2022/05/29 02:11:02;;;;;;;0.20;0.20;;;9.80;99.90;;;;;;4995503;28;20468;-84
2022/05/29 02:13:56;;;;;;;0.00;0.00;;;9.80;99.90;;;;;;5015455;28;20483;-84
2022/05/29 02:16:52;;;;;;;0.00;0.00;;;9.80;99.90;;;;;;4999098;28;20053;-85
2022/05/29 02:19:37;;;;;;;0.10;0.10;;;9.90;99.90;;;;;;5023039;22;20050;-89
2022/05/29 02:22:16;;;;;;;0.00;0.00;;;9.90;99.90;;;;;;4986737;28;20050;-89
2022/05/29 02:24:46;;;;;;;0.03;0.03;;;9.90;99.90;;;;;;4998845;28;20515;-89
2022/05/29 02:27:37;;;;;;;0.10;0.10;;;9.90;99.90;;;;;;4989628;28;20042;-89
2022/05/29 02:30:05;;;;;;;0.40;0.40;;;9.90;99.90;;;;;;4995826;28;20132;-89
2022/05/29 02:32:36;;;;;;;0.32;0.32;;;9.90;99.90;;;;;;4995676;28;20061;-89
2022/05/29 02:35:30;;;;;;;0.20;0.20;;;9.90;99.90;;;;;;5011586;28;20050;-90
2022/05/29 02:38:06;;;;;;;0.45;0.28;;;9.90;99.90;;;;;;4995258;28;20085;-90
2022/05/29 02:41:02;;;;;;;0.55;0.40;;;9.90;99.90;;;;;;4995674;28;20488;-89
2022/05/29 02:44:13;;;;;;;0.10;0.10;;;9.90;99.90;;;;;;5009397;28;20042;-90
2022/05/29 02:46:47;;;;;;;0.00;0.00;;;9.90;99.90;;;;;;4972608;28;20110;-90
2022/05/29 02:49:26;;;;;;;0.10;0.10;;;10.00;99.90;;;;;;4965877;28;20045;-91
2022/05/29 02:52:11;;;;;;;0.73;0.73;;;10.00;99.90;;;;;;4986784;28;20065;-90
2022/05/29 02:54:37;;;;;;;0.10;0.10;;;10.00;99.90;;;;;;4998594;28;20129;-89
2022/05/29 02:57:04;;;;;;;0.05;0.05;;;10.00;99.90;;;;;;4995748;28;20132;-89
2022/05/29 02:59:34;;;;;;;0.00;0.00;;;10.00;99.90;;;;;;4995004;28;20370;-89
2022/05/29 03:02:15;;;;;;;0.43;0.43;;;10.00;99.90;;;;;;4995187;28;20038;-89
2022/05/29 03:04:50;;;;;;;0.30;0.30;;;10.00;99.90;;;;;;5011225;28;20396;-89
2022/05/29 03:08:03;;;;;;;0.00;0.00;;;10.00;99.90;;;;;;5025271;28;20496;-89
2022/05/29 03:10:37;;;;;;;0.00;0.00;;;10.00;99.90;;;;;;4964897;28;20184;-89
2022/05/29 03:13:11;;;;;;;0.10;0.10;;;10.00;99.90;;;;;;5000823;28;20123;-91
2022/05/29 03:15:49;;;;;;;0.10;0.10;;;10.50;99.90;;;;;;5000464;28;20050;-90
2022/05/29 03:18:32;;;;;;;0.00;0.00;;;9.90;99.90;;;;;;4996859;28;20462;-90
2022/05/29 03:21:09;;;;;;;0.10;0.10;;;9.90;99.90;;;;;;4997607;28;20057;-91
2022/05/29 03:23:57;;;;;;;0.88;0.55;;;9.90;99.90;;;;;;4997643;28;20558;-89
2022/05/29 03:26:35;;;;;;;0.35;0.35;;;9.80;99.90;;;;;;5014104;28;20096;-91
2022/05/29 03:29:12;;;;;;;0.03;0.03;;;9.80;99.90;;;;;;5013320;28;20034;-89
2022/05/29 03:31:39;;;;;;;0.10;0.10;;;10.30;99.90;;;;;;5013287;28;20133;-89
2022/05/29 03:34:07;;;;;;;0.10;0.10;;;10.20;99.90;;;;;;4996666;28;20100;-89
2022/05/29 03:36:33;;;;;;;0.00;0.00;;;9.80;99.90;;;;;;5010551;28;20046;-89
2022/05/29 03:38:59;;;;;;;0.08;0.08;;;9.80;99.90;;;;;;4994231;28;20049;-89
2022/05/29 03:41:39;;;;;;;0.00;0.00;;;9.90;99.90;;;;;;4997669;28;20045;-89
2022/05/29 03:44:06;;;;;;;0.00;0.00;;;9.90;99.90;;;;;;5013881;28;20045;-89
2022/05/29 03:46:32;;;;;;;0.00;0.00;;;9.90;99.90;;;;;;4978085;28;20041;-89
2022/05/29 03:48:57;;;;;;;0.00;0.00;;;9.90;99.90;;;;;;4995664;28;20388;-90
2022/05/29 03:51:23;;;;;;;0.00;0.00;;;10.20;99.90;;;;;;4996320;28;20046;-90
2022/05/29 03:53:49;;;;;;;0.10;0.10;;;10.00;99.90;;;;;;5021046;28;20075;-90
2022/05/29 03:56:15;;;;;;;0.00;0.00;;;10.20;99.90;;;;;;4961600;28;20044;-90
2022/05/29 03:58:40;;;;;;;0.10;0.10;;;10.00;99.90;;;;;;4994063;28;20042;-90
2022/05/29 04:01:06;;;;;;;0.10;0.10;;;10.20;99.90;;;;;;4961643;28;20373;-90
2022/05/29 04:03:34;;;;;;;0.22;0.22;;;10.00;99.90;;;;;;4960934;28;22384;-90
2022/05/29 04:05:59;;;;;;;0.10;0.10;;;10.10;99.90;;;;;;4980423;28;20046;-89
2022/05/29 04:13:55;;;;;;;0.10;0.10;;;10.20;99.90;;;;;;5022556;28;20046;-90
2022/05/29 04:16:21;;;;;;;0.10;0.10;;;10.20;99.90;;;;;;4976953;28;20053;-90
2022/05/29 04:18:46;;;;;;;0.00;0.00;;;10.20;99.90;;;;;;4977353;28;20526;-91
2022/05/29 04:21:12;;;;;;;0.10;0.10;;;10.20;99.90;;;;;;5013032;28;20400;-91
2022/05/29 04:23:38;;;;;;;0.10;0.10;;;10.30;99.90;;;;;;4996495;28;20038;-92
2022/05/29 04:26:04;;;;;;;0.77;0.77;;;10.30;99.90;;;;;;4996658;28;20046;-91
2022/05/29 04:28:30;;;;;;;0.95;0.73;;;9.90;99.90;;;;;;4980407;28;20038;-92
2022/05/29 04:30:55;;;;;;;0.00;0.00;;;10.30;99.90;;;;;;4996766;28;20065;-92
2022/05/29 04:33:22;;;;;;;0.00;0.00;;;10.00;99.90;;;;;;4994899;28;20407;-91
2022/05/29 04:35:52;;;;;;;0.03;0.03;;;10.40;99.90;;;;;;5015982;28;20033;-91
2022/05/29 04:38:20;;;;;;;0.10;0.10;;;10.40;99.90;;;;;;4993510;28;20089;-91
2022/05/29 04:40:46;;;;;;;0.10;0.10;;;10.40;99.90;;;;;;4944733;28;20039;-90
2022/05/29 04:43:13;;;;;;;0.55;0.32;;;10.40;99.90;;;;;;5007800;28;20096;-91
2022/05/29 04:45:41;;;;;;;0.77;0.77;;;10.50;99.90;;;;;;4980620;28;20124;-90
2022/05/29 04:48:07;;;;;;;0.00;0.00;;;10.80;99.90;;;;;;5012470;28;20048;-91
2022/05/29 04:50:33;;;;;;;0.08;0.08;;;10.50;99.90;;;;;;4996252;28;20030;-91
2022/05/29 04:52:59;;;;;;;0.00;0.00;;;10.50;99.90;;;;;;4996147;28;20046;-91
2022/05/29 04:55:25;;;;;;;0.00;0.00;;;10.50;99.90;;;;;;4964345;28;20069;-91
2022/05/29 04:57:50;;;;;;;0.00;0.00;;;10.50;99.90;;;;;;4970482;28;20069;-91
2022/05/29 05:00:17;;;;;;;0.22;0.22;;;10.60;99.90;;;;;;4985732;28;20400;-91
2022/05/29 05:02:42;;;;;;;0.10;0.10;;;10.60;99.90;;;;;;5011887;28;20053;-90
2022/05/29 05:05:09;;;;;;;0.73;0.47;;;10.70;99.90;;;;;;4986873;28;20029;-91
2022/05/29 05:07:35;;;;;;;0.10;0.10;;;10.70;99.90;;;;;;4975368;28;20121;-91
2022/05/29 05:10:03;;;;;;;0.10;0.10;;;10.80;99.90;;;;;;5007414;28;20435;-90
2022/05/29 05:12:28;;;;;;;0.00;0.00;;;10.80;99.90;;;;;;4999699;28;20387;-90
2022/05/29 05:14:54;;;;;;;0.00;0.00;;;11.10;99.90;;;;;;4983096;28;20048;-91
2022/05/29 05:17:20;;;;;;;0.00;0.00;;;10.90;99.90;;;;;;4983030;28;20041;-90
2022/05/29 05:19:46;;;;;;;0.20;0.20;;;11.00;99.90;;;;;;4980573;28;20059;-91
2022/05/29 05:22:11;;;;;;;0.38;0.25;;;11.10;99.90;;;;;;4999470;28;20507;-90
2022/05/29 05:24:38;;;;;;;0.00;0.00;;;11.20;99.90;;;;;;5015545;28;20395;-90
2022/05/29 05:27:05;;;;;;;0.10;0.10;;;11.30;99.90;;;;;;4969314;28;20061;-90
2022/05/29 05:29:32;;;;;;;0.10;0.10;;;11.30;99.90;;;;;;4979511;28;20069;-89
2022/05/29 05:31:57;;;;;;;0.00;0.00;;;11.30;99.90;;;;;;4995863;28;20140;-89
2022/05/29 05:34:23;;;;;;;0.43;0.32;;;11.40;99.90;;;;;;5012665;28;20137;-90
2022/05/29 05:36:49;;;;;;;0.10;0.10;;;11.40;99.90;;;;;;4995854;28;20077;-90
2022/05/29 05:39:15;;;;;;;0.00;0.00;;;11.40;99.90;;;;;;4977669;28;20060;-89
2022/05/29 05:41:41;;;;;;;0.10;0.10;;;11.40;99.90;;;;;;5015331;28;20048;-89
2022/05/29 05:44:06;;;;;;;1.98;1.85;;;11.30;99.90;;;;;;4982897;28;20042;-90
2022/05/29 05:46:32;;;;;;;0.30;0.30;;;11.30;99.90;;;;;;4999144;28;20041;-90
2022/05/29 05:48:58;;;;;;;0.30;0.30;;;11.20;99.90;;;;;;4996923;28;20038;-89
2022/05/29 05:51:25;;;;;;;0.00;0.00;;;11.10;99.90;;;;;;4976568;28;20047;-90
2022/05/29 05:53:51;;;;;;;0.00;0.00;;;11.00;99.90;;;;;;4976238;28;20046;-90
2022/05/29 05:56:18;;;;;;;0.10;0.10;;;11.00;99.90;;;;;;4992262;28;20093;-90
2022/05/29 05:58:44;;;;;;;0.10;0.10;;;11.00;99.90;;;;;;4992376;28;20133;-89
2022/05/29 06:01:16;;;;;;;0.05;0.05;;;11.10;99.90;;;;;;5005036;28;20045;-90
2022/05/29 06:03:42;;;;;;;0.10;0.10;;;11.10;99.90;;;;;;4992349;28;20043;-90
2022/05/29 06:06:08;;;;;;;0.00;0.00;;;11.10;99.90;;;;;;5008790;28;20046;-89
2022/05/29 06:08:34;;;;;;;0.20;0.20;;;11.10;99.90;;;;;;4976180;28;20129;-90
2022/05/29 06:11:00;;;;;;;0.03;0.03;;;11.70;99.90;;;;;;4999244;28;20053;-90
2022/05/29 06:13:26;;;;;;;0.00;0.00;;;11.00;99.90;;;;;;4992342;28;20477;-89
2022/05/29 06:15:52;;;;;;;0.00;0.00;;;10.90;99.90;;;;;;5019899;28;20045;-92
2022/05/29 06:18:19;;;;;;;0.10;0.10;;;10.90;99.90;;;;;;4985968;28;20037;-94
2022/05/29 06:20:46;;;;;;;0.00;0.00;;;10.90;99.90;;;;;;4985664;28;20059;-92
2022/05/29 06:23:12;;;;;;;0.40;0.40;;;10.90;99.90;;;;;;4956671;29;20051;-93
2022/05/29 06:25:39;;;;;;;0.00;0.00;;;11.50;99.90;;;;;;4957053;29;20385;-93
2022/05/29 06:28:06;;;;;;;0.10;0.10;;;11.00;99.90;;;;;;4973400;28;20441;-93
2022/05/29 06:30:32;;;;;;;0.00;0.00;;;11.00;99.90;;;;;;4960410;28;20035;-92
2022/05/29 06:32:57;;;;;;;0.10;0.10;;;11.10;99.90;;;;;;4977490;28;20046;-92
2022/05/29 06:35:23;;;;;;;0.25;0.25;;;11.20;99.90;;;;;;5008799;28;20481;-93
2022/05/29 06:37:49;;;;;;;0.30;0.30;;;11.00;99.90;;;;;;4960193;28;20047;-93
2022/05/29 06:40:15;;;;;;;0.10;0.10;;;11.40;99.90;;;;;;4972369;28;20512;-92
2022/05/29 06:42:42;;;;;;;0.10;0.10;;;11.50;99.90;;;;;;4995224;28;20038;-92
2022/05/29 06:45:09;;;;;;;0.63;0.40;;;11.60;99.90;;;;;;4995239;28;20501;-93
2022/05/29 06:47:36;;;;;;;0.00;0.00;;;11.70;99.90;;;;;;4979194;28;20133;-92
2022/05/29 06:50:03;;;;;;;1.02;0.45;;;11.80;99.90;;;;;;4995212;28;20038;-92
2022/05/29 06:52:32;;;;;;;5.68;3.10;;;11.90;99.90;;;;;;4969948;28;20101;-92
2022/05/29 06:54:58;;;;;;;0.00;0.00;;;12.00;99.90;;;;;;4975612;28;20047;-93
2022/05/29 06:57:36;;;;;;;0.10;0.10;;;12.10;99.90;;;;;;4959964;28;20112;-93
2022/05/29 07:08:03;;;;;;;0.10;0.10;;;12.50;99.90;;;;;;4959454;28;20047;-90
2022/05/29 07:10:31;;;;;;;0.75;0.43;;;12.50;99.90;;;;;;4991276;28;20049;-89
2022/05/29 07:12:58;;;;;;;0.05;0.05;;;12.50;99.90;;;;;;4975524;28;20043;-89
2022/05/29 07:15:24;;;;;;;0.00;0.00;;;12.50;99.90;;;;;;4943313;28;20097;-88
2022/05/29 07:17:50;;;;;;;0.65;0.60;;;12.50;99.90;;;;;;4942693;28;20041;-90
2022/05/29 07:20:16;;;;;;;0.00;0.00;;;12.50;99.90;;;;;;4987117;28;20112;-88
2022/05/29 07:22:43;;;;;;;0.10;0.10;;;12.60;99.90;;;;;;4994327;28;20038;-89
2022/05/29 07:25:13;;;;;;;0.00;0.00;;;12.60;99.90;;;;;;4978197;28;20045;-89
2022/05/29 07:27:39;;;;;;;0.10;0.10;;;12.60;99.90;;;;;;4993897;28;20076;-89
2022/05/29 07:30:07;;;;;;;0.00;0.00;;;12.60;99.90;;;;;;4994367;28;20042;-89
2022/05/29 07:32:32;;;;;;;1.17;0.65;;;12.60;99.90;;;;;;4986139;28;20546;-89
2022/05/29 07:34:59;;;;;;;0.00;0.00;;;12.60;99.90;;;;;;4962079;28;20053;-89
2022/05/29 07:37:26;;;;;;;0.55;0.47;;;12.50;99.90;;;;;;4978248;28;20125;-90
2022/05/29 07:39:53;;;;;;;0.00;0.00;;;12.30;99.90;;;;;;5027043;28;20132;-92
2022/05/29 07:45:07;;;;;;;0.00;0.00;;;12.10;99.90;;;;;;5026814;28;20061;-91
2022/05/29 07:47:40;;;;;;;0.10;0.10;;;12.00;99.90;;;;;;4991558;28;20052;-92
2022/05/29 07:50:08;;;;;;;0.00;0.00;;;11.90;99.90;;;;;;4976832;28;20034;-92
2022/05/29 07:52:34;;;;;;;0.00;0.00;;;11.90;99.90;;;;;;4989762;28;20054;-92
2022/05/29 07:54:59;;;;;;;0.00;0.00;;;12.50;99.90;;;;;;4961198;28;20161;-91
2022/05/29 07:57:26;;;;;;;0.45;0.45;;;12.20;99.90;;;;;;4993134;28;20535;-90
2022/05/29 07:59:52;;;;;;;0.00;0.00;;;11.90;99.90;;;;;;4977667;28;20082;-89
2022/05/29 08:02:18;;;;;;;0.10;0.10;;;12.00;99.90;;;;;;4977423;28;20092;-90
2022/05/29 08:04:45;;;;;;;0.00;0.00;;;12.20;99.90;;;;;;5009803;28;20061;-89
2022/05/29 08:07:14;;;;;;;0.00;0.00;;;12.30;99.90;;;;;;4977235;28;20048;-89
2022/05/29 08:09:40;;;;;;;0.00;0.00;;;12.80;99.90;;;;;;5013265;28;20100;-89
2022/05/29 08:12:06;;;;;;;0.10;0.10;;;12.60;99.90;;;;;;4997040;28;20044;-92
2022/05/29 08:14:32;;;;;;;0.15;0.15;;;12.70;99.90;;;;;;4981452;28;20117;-94
2022/05/29 08:16:58;;;;;;;0.00;0.00;;;12.90;99.90;;;;;;4993150;28;20540;-93
2022/05/29 08:19:23;;;;;;;0.00;0.00;;;13.00;99.90;;;;;;4974999;28;20117;-93
2022/05/29 08:21:49;;;;;;;0.20;0.20;;;13.00;99.90;;;;;;4993487;28;20046;-94
2022/05/29 08:32:28;;;;;;;0.10;0.10;;;12.40;99.90;;;;;;4992612;28;20109;-90
2022/05/29 08:34:54;;;;;;;0.00;0.00;;;12.30;99.90;;;;;;4990410;28;20043;-91
2022/05/29 08:37:20;;;;;;;0.10;0.10;;;12.00;99.90;;;;;;4973681;28;20407;-91
2022/05/29 08:39:46;;;;;;;0.00;0.00;;;12.00;99.90;;;;;;4996536;28;20048;-91
2022/05/29 08:42:18;;;;;;;0.00;0.00;;;11.90;99.90;;;;;;4973631;28;20046;-91
2022/05/29 08:44:49;;;;;;;0.00;0.00;;;12.50;99.90;;;;;;4993067;28;20555;-91
2022/05/29 08:47:28;;;;;;;0.22;0.13;;;12.00;99.90;;;;;;4993011;28;20053;-94
2022/05/29 08:49:55;;;;;;;0.00;0.00;;;12.10;99.90;;;;;;4977254;28;20130;-94
2022/05/29 08:53:07;;;;;;;0.10;0.10;;;12.20;99.90;;;;;;4992972;28;20121;-94
2022/05/29 08:55:54;;;;;;;0.00;0.00;;;12.40;99.90;;;;;;4984272;28;20054;-95
2022/05/29 08:58:32;;;;;;;3.88;0.75;;;12.70;99.90;;;;;;5025714;28;20038;-93
2022/05/29 09:01:05;;;;;;;0.00;0.00;;;12.70;99.90;;;;;;4993076;28;20042;-93
2022/05/29 09:03:53;;;;;;;0.05;0.05;;;12.70;99.90;;;;;;4993095;28;20088;-91
2022/05/29 09:06:28;;;;;;;0.00;0.00;;;12.60;99.90;;;;;;4992502;28;20089;-90
2022/05/29 09:08:57;;;;;;;0.00;0.00;;;12.40;99.90;;;;;;4995281;28;20042;-90
2022/05/29 09:11:54;;;;;;;0.17;0.17;;;12.40;99.90;;;;;;5025336;28;20045;-89
2022/05/29 09:14:35;;;;;;;0.10;0.10;;;12.20;99.90;;;;;;4992811;28;20042;-90
2022/05/29 09:17:10;;;;;;;0.03;0.03;;;12.20;99.90;;;;;;5000901;28;20065;-89
2022/05/29 09:19:53;;;;;;;0.13;0.13;;;12.40;99.90;;;;;;5007881;28;20062;-92
2022/05/29 09:22:51;;;;;;;0.20;0.20;;;12.60;99.90;;;;;;5005882;28;20042;-91
2022/05/29 09:25:36;;;;;;;0.00;0.00;;;12.80;99.90;;;;;;5007115;28;20042;-91
2022/05/29 09:28:20;;;;;;;0.17;0.17;;;13.00;99.90;;;;;;4976535;28;20123;-91
2022/05/29 09:30:46;;;;;;;0.35;0.10;;;13.30;99.90;;;;;;5008820;28;20100;-91
2022/05/29 09:33:19;;;;;;;0.20;0.20;;;13.30;99.90;;;;;;4992610;28;20511;-90
2022/05/29 09:36:05;;;;;;;0.10;0.10;;;13.40;99.90;;;;;;4977241;28;20093;-90
2022/05/29 09:38:53;;;;;;;0.00;0.00;;;13.40;99.90;;;;;;5008716;28;20048;-90
2022/05/29 09:41:45;;;;;;;0.90;0.30;;;13.40;99.90;;;;;;4991752;28;20073;-89
2022/05/29 09:44:17;;;;;;;0.10;0.10;;;13.50;99.90;;;;;;4957044;28;20042;-90
2022/05/29 09:46:46;;;;;;;0.00;0.00;;;13.50;99.90;;;;;;4981809;28;20030;-90
2022/05/29 09:52:32;;;;;;;1.35;0.70;;;13.60;99.90;;;;;;4995927;28;20481;-92
2022/05/29 09:55:20;;;;;;;0.00;0.00;;;13.60;99.90;;;;;;5022982;28;20049;-92
2022/05/29 09:57:52;;;;;;;1.15;1.08;;;13.50;99.90;;;;;;4979628;28;20047;-94
2022/05/29 10:00:34;;;;;;;0.05;0.05;;;13.70;99.90;;;;;;5018987;28;20392;-94
2022/05/29 10:03:05;;;;;;;0.45;0.10;;;13.80;99.90;;;;;;4999739;28;20061;-94
2022/05/29 10:05:42;;;;;;;0.00;0.00;;;14.00;99.90;;;;;;4960774;28;20505;-93
2022/05/29 10:08:31;;;;;;;0.55;0.55;;;13.70;99.90;;;;;;4992896;28;20389;-94
2022/05/29 10:11:31;;;;;;;0.00;0.00;;;14.10;99.90;;;;;;4997576;28;20030;-92
2022/05/29 10:14:00;;;;;;;0.00;0.00;;;14.50;99.90;;;;;;4986773;28;20054;-91
2022/05/29 10:16:44;;;;;;;0.00;0.00;;;14.80;99.90;;;;;;5003594;28;20081;-92
2022/05/29 10:19:14;;;;;;;0.00;0.00;;;15.10;99.90;;;;;;4980747;28;20137;-91
2022/05/29 10:21:50;;;;;;;0.00;0.00;;;15.10;99.90;;;;;;5032293;28;20048;-92
2022/05/29 10:24:37;;;;;;;0.10;0.10;;;15.00;99.90;;;;;;5001965;28;20041;-92
2022/05/29 10:27:21;;;;;;;0.00;0.00;;;15.00;99.90;;;;;;4973478;28;20120;-89
2022/05/29 10:29:57;;;;;;;0.08;0.08;;;14.90;99.90;;;;;;4998683;28;20161;-90
2022/05/29 10:32:29;;;;;;;0.20;0.20;;;14.80;99.90;;;;;;4998139;28;20775;-90
2022/05/29 10:35:29;;;;;;;0.73;0.73;;;14.90;99.90;;;;;;5014531;28;20480;-91
2022/05/29 10:37:56;;;;;;;0.20;0.20;;;14.80;99.90;;;;;;4973061;28;20081;-90
2022/05/29 10:40:24;;;;;;;0.00;0.00;;;14.80;99.90;;;;;;4995232;28;20426;-91
2022/05/29 10:42:56;;;;;;;0.00;0.00;;;14.60;99.90;;;;;;5006491;28;20044;-91
2022/05/29 10:45:28;;;;;;;0.00;0.00;;;14.40;99.90;;;;;;5015615;28;20048;-90
2022/05/29 10:48:03;;;;;;;0.10;0.10;;;14.00;99.90;;;;;;4981840;28;20073;-90
2022/05/29 10:51:03;;;;;;;0.20;0.20;;;13.50;99.90;;;;;;4998400;28;20034;-92
2022/05/29 10:54:03;;;;;;;0.00;0.00;;;13.20;99.90;;;;;;4996089;28;20123;-92
2022/05/29 10:56:42;;;;;;;0.10;0.10;;;13.00;99.90;;;;;;4975594;28;20056;-91
2022/05/29 10:59:30;;;;;;;0.00;0.00;;;12.90;99.90;;;;;;4998216;28;20103;-92
2022/05/29 11:05:13;;;;;;;0.10;0.10;;;12.90;99.90;;;;;;5037104;22;20504;-92
2022/05/29 11:08:04;;;;;;;0.00;0.00;;;13.10;99.90;;;;;;5014525;28;20045;-93
2022/05/29 11:10:56;;;;;;;4.93;0.40;;;13.30;99.90;;;;;;5013962;28;20072;-92
2022/05/29 11:13:32;;;;;;;0.10;0.10;;;13.30;99.90;;;;;;5014478;28;20104;-92
2022/05/29 11:16:33;;;;;;;0.30;0.30;;;13.50;99.90;;;;;;4997537;28;20042;-92
2022/05/29 11:19:11;;;;;;;0.10;0.10;;;13.80;99.90;;;;;;4994923;28;20038;-92
2022/05/29 11:22:03;;;;;;;0.10;0.10;;;14.20;99.90;;;;;;4995084;28;20042;-92
2022/05/29 11:25:06;;;;;;;0.20;0.20;;;14.60;99.90;;;;;;4994529;28;20553;-92
2022/05/29 11:27:54;;;;;;;0.00;0.00;;;15.00;99.90;;;;;;4994665;28;20085;-91
2022/05/29 11:30:26;;;;;;;0.00;0.00;;;15.30;99.90;;;;;;4994557;28;20042;-92
2022/05/29 11:33:18;;;;;;;0.00;0.00;;;15.50;99.90;;;;;;4985947;28;20034;-87
2022/05/29 11:36:04;;;;;;;0.00;0.00;;;15.50;99.90;;;;;;5012234;28;20535;-87
2022/05/29 11:38:54;;;;;;;0.17;0.13;;;15.40;99.90;;;;;;5009950;28;20034;-87
2022/05/29 11:41:56;;;;;;;0.00;0.00;;;15.20;99.90;;;;;;5010665;28;20281;-88
2022/05/29 11:44:32;;;;;;;0.00;0.00;;;15.00;99.90;;;;;;4989990;28;20099;-87
2022/05/29 11:53:28;;;;;;;0.10;0.10;;;14.30;99.90;;;;;;5013579;28;20081;-86
2022/05/29 11:55:58;;;;;;;0.10;0.10;;;14.20;99.90;;;;;;4997018;28;20041;-87
2022/05/29 11:58:37;;;;;;;0.00;0.00;;;14.00;99.90;;;;;;5011226;28;20045;-86
2022/05/29 12:01:13;;;;;;;0.00;0.00;;;13.90;99.90;;;;;;5013520;28;20049;-87
2022/05/29 12:03:44;;;;;;;0.20;0.20;;;14.00;99.90;;;;;;4996964;28;20064;-86
2022/05/29 12:06:15;;;;;;;0.10;0.10;;;14.20;99.90;;;;;;5013328;28;20081;-84
2022/05/29 12:08:59;;;;;;;0.10;0.10;;;14.40;99.90;;;;;;5011679;28;20120;-83
2022/05/29 12:11:27;;;;;;;0.03;0.03;;;14.60;99.90;;;;;;4996298;28;20045;-84
2022/05/29 12:14:05;;;;;;;0.03;0.03;;;14.80;99.90;;;;;;5014878;28;20117;-84
2022/05/29 12:16:34;;;;;;;0.00;0.00;;;15.00;99.90;;;;;;5012844;28;20574;-84
2022/05/29 12:19:07;;;;;;;0.13;0.13;;;15.20;99.90;;;;;;5012667;28;20042;-85
2022/05/29 12:21:53;;;;;;;0.10;0.10;;;15.40;99.90;;;;;;5013161;28;20053;-85
2022/05/29 12:24:23;;;;;;;0.73;0.73;;;15.30;99.90;;;;;;5016764;28;20041;-93
2022/05/29 12:26:57;;;;;;;0.00;0.00;;;15.10;99.90;;;;;;5000917;28;20343;-92
2022/05/29 12:29:27;;;;;;;0.10;0.10;;;15.00;99.90;;;;;;4996924;28;20474;-91
2022/05/29 12:32:03;;;;;;;0.60;0.60;;;14.70;99.90;;;;;;4996948;28;20042;-94
2022/05/29 12:34:36;;;;;;;0.00;0.00;;;14.50;99.90;;;;;;5013303;28;20042;-94
2022/05/29 12:37:08;;;;;;;0.38;0.38;;;14.30;99.90;;;;;;4995596;28;20100;-93
2022/05/29 12:39:58;;;;;;;0.20;0.20;;;14.30;99.90;;;;;;4996163;28;20049;-88
2022/05/29 12:42:24;;;;;;;0.00;0.00;;;14.30;99.90;;;;;;5010890;28;20133;-88
2022/05/29 12:45:33;;;;;;;0.00;0.00;;;14.30;99.90;;;;;;5003551;28;20832;-88
2022/05/29 12:48:04;;;;;;;0.00;0.00;;;14.60;99.90;;;;;;5009838;28;20092;-88
2022/05/29 12:51:11;;;;;;;0.00;0.00;;;14.70;99.90;;;;;;5001077;28;20057;-88
2022/05/29 12:53:58;;;;;;;1.60;0.35;;;15.30;99.90;;;;;;4977588;28;20468;-87
2022/05/29 12:56:44;;;;;;;0.00;0.00;;;15.20;99.90;;;;;;4994761;28;20103;-85
2022/05/29 12:59:49;;;;;;;0.10;0.10;;;15.40;99.90;;;;;;5005921;28;20074;-85
2022/05/29 13:02:34;;;;;;;0.28;0.28;;;15.50;99.90;;;;;;4995736;28;20045;-85
2022/05/29 13:05:25;;;;;;;0.00;0.00;;;15.50;99.90;;;;;;4986118;28;20141;-84
2022/05/29 13:08:18;;;;;;;0.10;0.10;;;15.30;99.90;;;;;;5028754;28;20046;-84
2022/05/29 13:10:47;;;;;;;0.70;0.38;;;15.50;99.90;;;;;;5012165;28;20038;-84
2022/05/29 13:13:35;;;;;;;0.22;0.22;;;15.00;99.90;;;;;;5000450;28;20128;-86
2022/05/29 13:16:19;;;;;;;0.00;0.00;;;15.10;99.90;;;;;;5031048;28;20057;-87
2022/05/29 13:19:18;;;;;;;0.10;0.10;;;15.00;99.90;;;;;;4996624;28;20104;-87
2022/05/29 13:22:04;;;;;;;0.08;0.08;;;15.00;99.90;;;;;;5011685;28;20041;-87
2022/05/29 13:24:36;;;;;;;0.10;0.10;;;14.80;99.90;;;;;;5015428;28;20046;-87
2022/05/29 13:27:16;;;;;;;5.68;0.20;;;14.70;99.90;;;;;;5014983;28;20041;-88
2022/05/29 13:29:42;;;;;;;0.57;0.45;;;14.30;99.90;;;;;;5007870;28;20440;-87
2022/05/29 13:32:13;;;;;;;0.20;0.20;;;14.20;99.90;;;;;;5003029;28;20103;-88
2022/05/29 13:34:43;;;;;;;0.22;0.22;;;14.10;99.90;;;;;;5016214;28;20112;-88
2022/05/29 13:37:45;;;;;;;0.63;0.63;;;13.90;99.90;;;;;;4997320;28;20042;-89
2022/05/29 13:40:30;;;;;;;0.30;0.30;;;13.80;99.90;;;;;;5012007;28;20400;-87
2022/05/29 13:43:16;;;;;;;0.30;0.30;;;13.90;99.90;;;;;;5013955;28;20060;-88
2022/05/29 13:45:42;;;;;;;0.30;0.30;;;14.00;99.90;;;;;;4995717;28;20506;-88
2022/05/29 13:48:21;;;;;;;0.17;0.17;;;14.20;99.90;;;;;;5009463;28;20057;-88
2022/05/29 13:51:25;;;;;;;0.10;0.10;;;14.20;99.90;;;;;;5013041;28;20480;-88
2022/05/29 13:54:07;;;;;;;0.00;0.00;;;14.40;99.90;;;;;;5011877;28;20042;-88
2022/05/29 13:56:59;;;;;;;0.20;0.20;;;14.50;99.90;;;;;;4994554;28;20045;-88
2022/05/29 14:05:42;;;;;;;0.17;0.17;;;14.60;99.90;;;;;;5009046;28;20057;-88
2022/05/29 14:08:17;;;;;;;0.00;0.00;;;14.60;99.90;;;;;;5010378;28;20033;-88
2022/05/29 14:11:08;;;;;;;0.20;0.20;;;14.60;99.90;;;;;;5015078;28;20115;-89
2022/05/29 14:14:20;;;;;;;0.40;0.20;;;14.60;99.90;;;;;;5014507;28;20554;-89